sensor_id;sensor_type;location;lat;lon;timestamp;temperature;humidity
19974;DHT22;10148;47.694;9.442;2023-02-18T00:01:44;10.30;99.90
19974;DHT22;10148;47.694;9.442;2023-02-18T00:04:09;10.30;99.90
19974;DHT22;10148;47.694;9.442;2023-02-18T00:06:35;10.30;99.90
19974;DHT22;10148;47.694;9.442;2023-02-18T00:09:02;10.30;99.90
19974;DHT22;10148;47.694;9.442;2023-02-18T00:11:30;10.40;99.90
19974;DHT22;10148;47.694;9.442;2023-02-18T00:13:58;10.40;99.90
19974;DHT22;10148;47.694;9.442;2023-02-18T00:16:26;10.30;99.90
19974;DHT22;10148;47.694;9.442;2023-02-18T00:18:57;10.40;99.90
19974;DHT22;10148;47.694;9.442;2023-02-18T00:21:22;10.40;99.90
19974;DHT22;10148;47.694;9.442;2023-02-18T00:23:48;10.40;99.90
19974;DHT22;10148;47.694;9.442;2023-02-18T00:26:15;10.40;99.90
19974;DHT22;10148;47.694;9.442;2023-02-18T00:28:41;10.40;99.90
19974;DHT22;10148;47.694;9.442;2023-02-18T00:31:23;10.50;99.90
19974;DHT22;10148;47.694;9.442;2023-02-18T00:33:49;10.50;99.90
19974;DHT22;10148;47.694;9.442;2023-02-18T00:36:17;10.50;99.90
19974;DHT22;10148;47.694;9.442;2023-02-18T00:38:55;10.40;99.90
19974;DHT22;10148;47.694;9.442;2023-02-18T00:41:22;10.50;99.90
19974;DHT22;10148;47.694;9.442;2023-02-18T00:43:48;10.40;99.90
19974;DHT22;10148;47.694;9.442;2023-02-18T00:46:14;10.40;99.90
19974;DHT22;10148;47.694;9.442;2023-02-18T00:48:40;10.40;99.90
19974;DHT22;10148;47.694;9.442;2023-02-18T00:51:06;10.40;99.90
19974;DHT22;10148;47.694;9.442;2023-02-18T00:53:32;10.40;99.90
19974;DHT22;10148;47.694;9.442;2023-02-18T00:55:58;10.40;99.90
19974;DHT22;10148;47.694;9.442;2023-02-18T00:58:24;10.40;99.90
19974;DHT22;10148;47.694;9.442;2023-02-18T01:00:50;10.40;99.90
19974;DHT22;10148;47.694;9.442;2023-02-18T01:03:16;10.40;99.90
19974;DHT22;10148;47.694;9.442;2023-02-18T01:05:41;10.40;99.90
19974;DHT22;10148;47.694;9.442;2023-02-18T01:08:09;10.40;99.90
19974;DHT22;10148;47.694;9.442;2023-02-18T01:10:36;10.40;99.90
19974;DHT22;10148;47.694;9.442;2023-02-18T01:13:04;10.40;99.90
19974;DHT22;10148;47.694;9.442;2023-02-18T01:15:30;10.40;99.90
19974;DHT22;10148;47.694;9.442;2023-02-18T01:17:56;10.50;99.90
19974;DHT22;10148;47.694;9.442;2023-02-18T01:20:22;10.50;99.90
19974;DHT22;10148;47.694;9.442;2023-02-18T01:22:47;10.50;99.90
19974;DHT22;10148;47.694;9.442;2023-02-18T01:25:13;10.50;99.90
19974;DHT22;10148;47.694;9.442;2023-02-18T01:27:39;10.50;99.90
19974;DHT22;10148;47.694;9.442;2023-02-18T01:30:07;10.50;99.90
19974;DHT22;10148;47.694;9.442;2023-02-18T01:32:33;10.50;99.90
19974;DHT22;10148;47.694;9.442;2023-02-18T01:35:03;10.50;99.90
19974;DHT22;10148;47.694;9.442;2023-02-18T01:37:28;10.50;99.90
19974;DHT22;10148;47.694;9.442;2023-02-18T01:39:54;10.40;99.90
19974;DHT22;10148;47.694;9.442;2023-02-18T01:42:23;10.50;99.90
19974;DHT22;10148;47.694;9.442;2023-02-18T01:44:49;10.40;99.90
19974;DHT22;10148;47.694;9.442;2023-02-18T01:47:15;10.40;99.90
19974;DHT22;10148;47.694;9.442;2023-02-18T01:49:42;10.40;99.90
19974;DHT22;10148;47.694;9.442;2023-02-18T01:52:15;10.40;99.90
19974;DHT22;10148;47.694;9.442;2023-02-18T01:54:47;10.40;99.90
19974;DHT22;10148;47.694;9.442;2023-02-18T01:57:26;10.40;99.90
19974;DHT22;10148;47.694;9.442;2023-02-18T02:00:15;10.40;99.90
19974;DHT22;10148;47.694;9.442;2023-02-18T02:02:49;10.40;99.90
19974;DHT22;10148;47.694;9.442;2023-02-18T02:05:15;10.30;99.90
19974;DHT22;10148;47.694;9.442;2023-02-18T02:07:42;10.30;99.90
19974;DHT22;10148;47.694;9.442;2023-02-18T02:10:11;10.20;99.90
19974;DHT22;10148;47.694;9.442;2023-02-18T02:12:56;10.20;99.90
19974;DHT22;10148;47.694;9.442;2023-02-18T02:15:48;10.20;99.90
19974;DHT22;10148;47.694;9.442;2023-02-18T02:18:32;10.10;99.90
19974;DHT22;10148;47.694;9.442;2023-02-18T02:26:48;10.10;99.90
19974;DHT22;10148;47.694;9.442;2023-02-18T02:37:26;10.10;99.90
19974;DHT22;10148;47.694;9.442;2023-02-18T02:45:29;10.10;99.90
19974;DHT22;10148;47.694;9.442;2023-02-18T02:48:28;10.10;99.90
19974;DHT22;10148;47.694;9.442;2023-02-18T02:51:17;10.10;99.90
19974;DHT22;10148;47.694;9.442;2023-02-18T02:53:45;10.20;99.90
19974;DHT22;10148;47.694;9.442;2023-02-18T02:56:20;10.20;99.90
19974;DHT22;10148;47.694;9.442;2023-02-18T02:59:00;10.20;99.90
19974;DHT22;10148;47.694;9.442;2023-02-18T03:01:40;10.20;99.90
19974;DHT22;10148;47.694;9.442;2023-02-18T03:07:54;10.20;99.90
19974;DHT22;10148;47.694;9.442;2023-02-18T03:10:47;10.20;99.90
19974;DHT22;10148;47.694;9.442;2023-02-18T03:13:25;10.20;99.90
19974;DHT22;10148;47.694;9.442;2023-02-18T03:18:58;10.20;99.90
19974;DHT22;10148;47.694;9.442;2023-02-18T03:21:36;10.20;99.90
19974;DHT22;10148;47.694;9.442;2023-02-18T03:24:14;10.20;99.90
19974;DHT22;10148;47.694;9.442;2023-02-18T03:26:47;10.20;99.90
19974;DHT22;10148;47.694;9.442;2023-02-18T03:29:16;10.20;99.90
19974;DHT22;10148;47.694;9.442;2023-02-18T03:31:44;10.20;99.90
19974;DHT22;10148;47.694;9.442;2023-02-18T03:34:15;10.20;99.90
19974;DHT22;10148;47.694;9.442;2023-02-18T03:36:41;10.20;99.90
19974;DHT22;10148;47.694;9.442;2023-02-18T03:39:10;10.20;99.90
19974;DHT22;10148;47.694;9.442;2023-02-18T03:41:38;10.10;99.90
19974;DHT22;10148;47.694;9.442;2023-02-18T03:44:06;10.20;99.90
19974;DHT22;10148;47.694;9.442;2023-02-18T03:46:33;10.10;99.90
19974;DHT22;10148;47.694;9.442;2023-02-18T03:49:00;10.20;99.90
19974;DHT22;10148;47.694;9.442;2023-02-18T03:51:26;10.10;99.90
19974;DHT22;10148;47.694;9.442;2023-02-18T03:53:51;10.10;99.90
19974;DHT22;10148;47.694;9.442;2023-02-18T03:56:18;10.10;99.90
19974;DHT22;10148;47.694;9.442;2023-02-18T03:58:43;10.10;99.90
19974;DHT22;10148;47.694;9.442;2023-02-18T04:01:09;10.20;99.90
19974;DHT22;10148;47.694;9.442;2023-02-18T04:03:34;10.20;99.90
19974;DHT22;10148;47.694;9.442;2023-02-18T04:06:00;10.20;99.90
19974;DHT22;10148;47.694;9.442;2023-02-18T04:08:26;10.20;99.90
19974;DHT22;10148;47.694;9.442;2023-02-18T04:10:51;10.30;99.90
19974;DHT22;10148;47.694;9.442;2023-02-18T04:13:17;10.30;99.90
19974;DHT22;10148;47.694;9.442;2023-02-18T04:15:44;10.30;99.90
19974;DHT22;10148;47.694;9.442;2023-02-18T04:18:09;10.40;99.90
19974;DHT22;10148;47.694;9.442;2023-02-18T04:20:35;10.40;99.90
19974;DHT22;10148;47.694;9.442;2023-02-18T04:23:02;10.40;99.90
19974;DHT22;10148;47.694;9.442;2023-02-18T04:25:28;10.40;99.90
19974;DHT22;10148;47.694;9.442;2023-02-18T04:27:53;10.40;99.90
19974;DHT22;10148;47.694;9.442;2023-02-18T04:30:19;10.40;99.90
19974;DHT22;10148;47.694;9.442;2023-02-18T04:32:45;10.40;99.90
19974;DHT22;10148;47.694;9.442;2023-02-18T04:35:10;10.40;99.90
19974;DHT22;10148;47.694;9.442;2023-02-18T04:37:36;10.40;99.90
19974;DHT22;10148;47.694;9.442;2023-02-18T04:40:02;10.50;99.90
19974;DHT22;10148;47.694;9.442;2023-02-18T04:42:27;10.50;99.90
19974;DHT22;10148;47.694;9.442;2023-02-18T04:44:53;10.50;99.90
19974;DHT22;10148;47.694;9.442;2023-02-18T04:47:19;10.50;99.90
19974;DHT22;10148;47.694;9.442;2023-02-18T04:49:44;10.50;99.90
19974;DHT22;10148;47.694;9.442;2023-02-18T04:52:10;10.50;99.90
19974;DHT22;10148;47.694;9.442;2023-02-18T04:54:35;10.50;99.90
19974;DHT22;10148;47.694;9.442;2023-02-18T04:57:01;10.50;99.90
19974;DHT22;10148;47.694;9.442;2023-02-18T04:59:26;10.60;99.90
19974;DHT22;10148;47.694;9.442;2023-02-18T05:01:52;10.60;99.90
19974;DHT22;10148;47.694;9.442;2023-02-18T05:04:17;10.60;99.90
19974;DHT22;10148;47.694;9.442;2023-02-18T05:06:43;10.60;99.90
19974;DHT22;10148;47.694;9.442;2023-02-18T05:09:10;10.60;99.90
19974;DHT22;10148;47.694;9.442;2023-02-18T05:11:36;10.60;99.90
19974;DHT22;10148;47.694;9.442;2023-02-18T05:14:01;10.60;99.90
19974;DHT22;10148;47.694;9.442;2023-02-18T05:16:27;10.60;99.90
19974;DHT22;10148;47.694;9.442;2023-02-18T05:18:52;10.60;99.90
19974;DHT22;10148;47.694;9.442;2023-02-18T05:21:18;10.50;99.90
19974;DHT22;10148;47.694;9.442;2023-02-18T05:23:43;10.50;99.90
19974;DHT22;10148;47.694;9.442;2023-02-18T05:26:09;10.50;99.90
19974;DHT22;10148;47.694;9.442;2023-02-18T05:28:34;10.50;99.90
19974;DHT22;10148;47.694;9.442;2023-02-18T05:31:00;10.50;99.90
19974;DHT22;10148;47.694;9.442;2023-02-18T05:33:26;10.50;99.90
19974;DHT22;10148;47.694;9.442;2023-02-18T05:35:51;10.40;99.90
19974;DHT22;10148;47.694;9.442;2023-02-18T05:38:17;10.40;99.90
19974;DHT22;10148;47.694;9.442;2023-02-18T05:40:43;10.40;99.90
19974;DHT22;10148;47.694;9.442;2023-02-18T05:43:08;10.40;99.90
19974;DHT22;10148;47.694;9.442;2023-02-18T05:45:34;10.40;99.90
19974;DHT22;10148;47.694;9.442;2023-02-18T05:48:00;10.40;99.90
19974;DHT22;10148;47.694;9.442;2023-02-18T05:50:25;10.40;99.90
19974;DHT22;10148;47.694;9.442;2023-02-18T05:52:51;10.30;99.90
19974;DHT22;10148;47.694;9.442;2023-02-18T05:55:17;10.30;99.90
19974;DHT22;10148;47.694;9.442;2023-02-18T05:57:42;10.20;99.90
19974;DHT22;10148;47.694;9.442;2023-02-18T06:00:08;10.30;99.90
19974;DHT22;10148;47.694;9.442;2023-02-18T06:02:35;10.20;99.90
19974;DHT22;10148;47.694;9.442;2023-02-18T06:05:00;10.20;99.90
19974;DHT22;10148;47.694;9.442;2023-02-18T06:07:26;10.20;99.90
19974;DHT22;10148;47.694;9.442;2023-02-18T06:09:52;10.20;99.90
19974;DHT22;10148;47.694;9.442;2023-02-18T06:12:18;10.20;99.90
19974;DHT22;10148;47.694;9.442;2023-02-18T06:14:43;10.20;99.90
19974;DHT22;10148;47.694;9.442;2023-02-18T06:17:10;10.10;99.90
19974;DHT22;10148;47.694;9.442;2023-02-18T06:19:36;10.10;99.90
19974;DHT22;10148;47.694;9.442;2023-02-18T06:22:02;10.10;99.90
19974;DHT22;10148;47.694;9.442;2023-02-18T06:24:28;10.10;99.90
19974;DHT22;10148;47.694;9.442;2023-02-18T06:26:53;10.10;99.90
19974;DHT22;10148;47.694;9.442;2023-02-18T06:29:19;10.10;99.90
19974;DHT22;10148;47.694;9.442;2023-02-18T06:31:44;10.10;99.90
19974;DHT22;10148;47.694;9.442;2023-02-18T06:34:10;10.10;99.90
19974;DHT22;10148;47.694;9.442;2023-02-18T06:36:35;10.10;99.90
19974;DHT22;10148;47.694;9.442;2023-02-18T06:39:03;10.00;99.90
19974;DHT22;10148;47.694;9.442;2023-02-18T06:41:29;10.00;99.90
19974;DHT22;10148;47.694;9.442;2023-02-18T06:43:54;10.00;99.90
19974;DHT22;10148;47.694;9.442;2023-02-18T06:46:20;10.00;99.90
19974;DHT22;10148;47.694;9.442;2023-02-18T06:48:45;10.00;99.90
19974;DHT22;10148;47.694;9.442;2023-02-18T06:51:11;10.00;99.90
19974;DHT22;10148;47.694;9.442;2023-02-18T06:53:36;10.00;99.90
19974;DHT22;10148;47.694;9.442;2023-02-18T06:56:02;10.10;99.90
19974;DHT22;10148;47.694;9.442;2023-02-18T06:58:28;10.10;99.90
19974;DHT22;10148;47.694;9.442;2023-02-18T07:00:53;10.00;99.90
19974;DHT22;10148;47.694;9.442;2023-02-18T07:03:19;10.00;99.90
19974;DHT22;10148;47.694;9.442;2023-02-18T07:05:44;10.00;99.90
19974;DHT22;10148;47.694;9.442;2023-02-18T07:08:10;10.00;99.90
19974;DHT22;10148;47.694;9.442;2023-02-18T07:10:36;9.90;99.90
19974;DHT22;10148;47.694;9.442;2023-02-18T07:13:01;9.90;99.90
19974;DHT22;10148;47.694;9.442;2023-02-18T07:15:27;9.80;99.90
19974;DHT22;10148;47.694;9.442;2023-02-18T07:17:53;9.80;99.90
19974;DHT22;10148;47.694;9.442;2023-02-18T07:20:20;9.80;99.90
19974;DHT22;10148;47.694;9.442;2023-02-18T07:22:46;9.80;99.90
19974;DHT22;10148;47.694;9.442;2023-02-18T07:25:11;9.90;99.90
19974;DHT22;10148;47.694;9.442;2023-02-18T07:27:37;10.00;99.90
19974;DHT22;10148;47.694;9.442;2023-02-18T07:30:03;10.00;99.90
19974;DHT22;10148;47.694;9.442;2023-02-18T07:32:29;10.10;99.90
19974;DHT22;10148;47.694;9.442;2023-02-18T07:34:54;10.20;99.90
19974;DHT22;10148;47.694;9.442;2023-02-18T07:37:20;10.20;99.90
19974;DHT22;10148;47.694;9.442;2023-02-18T07:39:45;10.30;99.90
19974;DHT22;10148;47.694;9.442;2023-02-18T07:42:12;10.30;99.90
19974;DHT22;10148;47.694;9.442;2023-02-18T07:44:39;10.30;99.90
19974;DHT22;10148;47.694;9.442;2023-02-18T07:47:06;10.40;99.90
19974;DHT22;10148;47.694;9.442;2023-02-18T07:49:33;10.50;99.90
19974;DHT22;10148;47.694;9.442;2023-02-18T07:51:59;10.50;99.90
19974;DHT22;10148;47.694;9.442;2023-02-18T07:54:25;10.60;99.90
19974;DHT22;10148;47.694;9.442;2023-02-18T07:56:51;10.60;99.90
19974;DHT22;10148;47.694;9.442;2023-02-18T07:59:16;10.60;99.90
19974;DHT22;10148;47.694;9.442;2023-02-18T08:01:42;10.70;99.90
19974;DHT22;10148;47.694;9.442;2023-02-18T08:04:08;10.70;99.90
19974;DHT22;10148;47.694;9.442;2023-02-18T08:06:38;10.70;99.90
19974;DHT22;10148;47.694;9.442;2023-02-18T08:09:05;10.80;99.90
19974;DHT22;10148;47.694;9.442;2023-02-18T08:11:32;10.80;99.90
19974;DHT22;10148;47.694;9.442;2023-02-18T08:13:57;10.90;99.90
19974;DHT22;10148;47.694;9.442;2023-02-18T08:16:23;10.80;99.90
19974;DHT22;10148;47.694;9.442;2023-02-18T08:18:50;10.80;99.90
19974;DHT22;10148;47.694;9.442;2023-02-18T08:21:18;10.90;99.90
19974;DHT22;10148;47.694;9.442;2023-02-18T08:23:44;10.90;99.90
19974;DHT22;10148;47.694;9.442;2023-02-18T08:26:10;10.90;99.90
19974;DHT22;10148;47.694;9.442;2023-02-18T08:28:36;10.80;99.90
19974;DHT22;10148;47.694;9.442;2023-02-18T08:31:02;10.80;99.90
19974;DHT22;10148;47.694;9.442;2023-02-18T08:33:28;10.90;99.90
19974;DHT22;10148;47.694;9.442;2023-02-18T08:35:54;10.90;99.90
19974;DHT22;10148;47.694;9.442;2023-02-18T08:38:21;10.90;99.90
19974;DHT22;10148;47.694;9.442;2023-02-18T08:40:47;11.00;99.90
19974;DHT22;10148;47.694;9.442;2023-02-18T08:43:14;11.10;99.90
19974;DHT22;10148;47.694;9.442;2023-02-18T08:45:40;11.10;99.90
19974;DHT22;10148;47.694;9.442;2023-02-18T08:48:07;11.20;99.90
19974;DHT22;10148;47.694;9.442;2023-02-18T08:50:33;11.20;99.90
19974;DHT22;10148;47.694;9.442;2023-02-18T08:52:58;11.20;99.90
19974;DHT22;10148;47.694;9.442;2023-02-18T08:55:28;11.30;99.90
19974;DHT22;10148;47.694;9.442;2023-02-18T08:57:53;11.30;99.90
19974;DHT22;10148;47.694;9.442;2023-02-18T09:00:19;11.40;99.90
19974;DHT22;10148;47.694;9.442;2023-02-18T09:02:44;11.40;99.90
19974;DHT22;10148;47.694;9.442;2023-02-18T09:05:12;11.40;99.90
19974;DHT22;10148;47.694;9.442;2023-02-18T09:07:37;11.50;99.90
19974;DHT22;10148;47.694;9.442;2023-02-18T09:10:04;11.50;99.90
19974;DHT22;10148;47.694;9.442;2023-02-18T09:12:30;11.50;99.90
19974;DHT22;10148;47.694;9.442;2023-02-18T09:14:55;11.50;99.90
19974;DHT22;10148;47.694;9.442;2023-02-18T09:17:21;11.50;99.90
19974;DHT22;10148;47.694;9.442;2023-02-18T09:19:46;11.50;99.90
19974;DHT22;10148;47.694;9.442;2023-02-18T09:22:12;11.60;99.90
19974;DHT22;10148;47.694;9.442;2023-02-18T09:24:39;11.70;99.90
19974;DHT22;10148;47.694;9.442;2023-02-18T09:27:05;11.70;99.90
19974;DHT22;10148;47.694;9.442;2023-02-18T09:29:31;11.70;99.90
19974;DHT22;10148;47.694;9.442;2023-02-18T09:32:00;11.70;99.90
19974;DHT22;10148;47.694;9.442;2023-02-18T09:34:26;11.70;99.90
19974;DHT22;10148;47.694;9.442;2023-02-18T09:36:52;11.70;99.90
19974;DHT22;10148;47.694;9.442;2023-02-18T09:39:19;11.80;99.90
19974;DHT22;10148;47.694;9.442;2023-02-18T09:42:00;11.80;99.90
19974;DHT22;10148;47.694;9.442;2023-02-18T09:44:34;11.80;99.90
19974;DHT22;10148;47.694;9.442;2023-02-18T09:47:21;11.80;99.90
19974;DHT22;10148;47.694;9.442;2023-02-18T09:50:22;11.80;99.90
19974;DHT22;10148;47.694;9.442;2023-02-18T09:52:49;11.80;99.90
19974;DHT22;10148;47.694;9.442;2023-02-18T09:58:02;11.80;99.90
19974;DHT22;10148;47.694;9.442;2023-02-18T10:00:35;11.70;99.90
19974;DHT22;10148;47.694;9.442;2023-02-18T10:03:04;11.80;99.90
19974;DHT22;10148;47.694;9.442;2023-02-18T10:05:32;11.80;99.90
19974;DHT22;10148;47.694;9.442;2023-02-18T10:08:04;11.80;99.90
19974;DHT22;10148;47.694;9.442;2023-02-18T10:10:41;11.80;99.90
19974;DHT22;10148;47.694;9.442;2023-02-18T10:13:29;11.80;99.90
19974;DHT22;10148;47.694;9.442;2023-02-18T10:15:55;11.90;99.90
19974;DHT22;10148;47.694;9.442;2023-02-18T10:21:15;11.90;99.90
19974;DHT22;10148;47.694;9.442;2023-02-18T10:24:11;11.90;99.90
19974;DHT22;10148;47.694;9.442;2023-02-18T10:26:37;11.90;99.90
19974;DHT22;10148;47.694;9.442;2023-02-18T10:29:03;11.90;99.90
19974;DHT22;10148;47.694;9.442;2023-02-18T10:31:35;11.90;99.90
19974;DHT22;10148;47.694;9.442;2023-02-18T10:37:00;11.90;99.90
19974;DHT22;10148;47.694;9.442;2023-02-18T10:42:19;11.90;99.90
19974;DHT22;10148;47.694;9.442;2023-02-18T10:50:39;12.00;99.90
19974;DHT22;10148;47.694;9.442;2023-02-18T10:55:50;12.00;99.90
19974;DHT22;10148;47.694;9.442;2023-02-18T10:58:36;12.10;99.90
19974;DHT22;10148;47.694;9.442;2023-02-18T11:01:13;12.10;99.90
19974;DHT22;10148;47.694;9.442;2023-02-18T11:03:43;12.10;99.90
19974;DHT22;10148;47.694;9.442;2023-02-18T11:06:30;12.10;99.90
19974;DHT22;10148;47.694;9.442;2023-02-18T11:08:57;12.10;99.90
19974;DHT22;10148;47.694;9.442;2023-02-18T11:11:29;12.10;99.90
19974;DHT22;10148;47.694;9.442;2023-02-18T11:14:01;12.00;99.90
19974;DHT22;10148;47.694;9.442;2023-02-18T11:19:04;12.00;99.90
19974;DHT22;10148;47.694;9.442;2023-02-18T11:21:36;12.00;99.90
19974;DHT22;10148;47.694;9.442;2023-02-18T11:24:14;12.00;99.90
19974;DHT22;10148;47.694;9.442;2023-02-18T11:26:40;12.00;99.90
19974;DHT22;10148;47.694;9.442;2023-02-18T11:29:15;12.10;99.90
19974;DHT22;10148;47.694;9.442;2023-02-18T11:31:46;12.20;99.90
19974;DHT22;10148;47.694;9.442;2023-02-18T11:34:20;12.30;99.90
19974;DHT22;10148;47.694;9.442;2023-02-18T11:36:47;12.40;99.90
19974;DHT22;10148;47.694;9.442;2023-02-18T11:39:21;12.40;99.90
19974;DHT22;10148;47.694;9.442;2023-02-18T11:41:57;12.50;99.90
19974;DHT22;10148;47.694;9.442;2023-02-18T11:49:37;12.50;99.90
19974;DHT22;10148;47.694;9.442;2023-02-18T11:52:09;12.60;99.90
19974;DHT22;10148;47.694;9.442;2023-02-18T11:54:38;12.60;99.90
19974;DHT22;10148;47.694;9.442;2023-02-18T11:57:08;12.60;99.90
19974;DHT22;10148;47.694;9.442;2023-02-18T11:59:37;12.50;99.90
19974;DHT22;10148;47.694;9.442;2023-02-18T12:04:56;12.60;99.90
19974;DHT22;10148;47.694;9.442;2023-02-18T12:07:34;12.70;99.90
19974;DHT22;10148;47.694;9.442;2023-02-18T12:10:53;12.70;99.90
19974;DHT22;10148;47.694;9.442;2023-02-18T12:13:06;12.70;99.90
19974;DHT22;10148;47.694;9.442;2023-02-18T12:21:27;12.60;99.90
19974;DHT22;10148;47.694;9.442;2023-02-18T12:24:09;12.60;99.90
19974;DHT22;10148;47.694;9.442;2023-02-18T12:27:00;12.50;99.90
19974;DHT22;10148;47.694;9.442;2023-02-18T12:32:18;12.60;99.90
19974;DHT22;10148;47.694;9.442;2023-02-18T12:35:10;12.60;99.90
19974;DHT22;10148;47.694;9.442;2023-02-18T12:49:21;12.80;99.90
19974;DHT22;10148;47.694;9.442;2023-02-18T12:51:56;12.90;99.90
19974;DHT22;10148;47.694;9.442;2023-02-18T12:54:31;13.10;99.90
19974;DHT22;10148;47.694;9.442;2023-02-18T13:02:52;13.30;99.90
19974;DHT22;10148;47.694;9.442;2023-02-18T13:08:30;13.70;99.90
19974;DHT22;10148;47.694;9.442;2023-02-18T13:11:35;13.80;99.90
19974;DHT22;10148;47.694;9.442;2023-02-18T13:14:09;13.80;99.90
19974;DHT22;10148;47.694;9.442;2023-02-18T13:16:37;13.90;99.90
19974;DHT22;10148;47.694;9.442;2023-02-18T13:19:28;14.10;99.90
19974;DHT22;10148;47.694;9.442;2023-02-18T13:22:01;14.30;99.90
19974;DHT22;10148;47.694;9.442;2023-02-18T13:24:37;14.30;99.90
19974;DHT22;10148;47.694;9.442;2023-02-18T13:27:38;14.30;99.90
19974;DHT22;10148;47.694;9.442;2023-02-18T13:30:24;14.20;99.90
19974;DHT22;10148;47.694;9.442;2023-02-18T13:35:42;14.20;99.90
19974;DHT22;10148;47.694;9.442;2023-02-18T13:38:30;14.20;99.90
19974;DHT22;10148;47.694;9.442;2023-02-18T13:41:00;14.30;99.90
19974;DHT22;10148;47.694;9.442;2023-02-18T13:51:33;14.60;99.90
19974;DHT22;10148;47.694;9.442;2023-02-18T13:54:24;14.60;99.90
19974;DHT22;10148;47.694;9.442;2023-02-18T13:57:16;14.80;99.90
19974;DHT22;10148;47.694;9.442;2023-02-18T13:59:50;14.80;99.90
19974;DHT22;10148;47.694;9.442;2023-02-18T14:27:37;14.70;99.90
19974;DHT22;10148;47.694;9.442;2023-02-18T14:32:40;14.40;99.90
19974;DHT22;10148;47.694;9.442;2023-02-18T14:35:18;14.30;99.90
19974;DHT22;10148;47.694;9.442;2023-02-18T14:41:04;14.30;99.90
19974;DHT22;10148;47.694;9.442;2023-02-18T14:46:34;14.40;99.90
19974;DHT22;10148;47.694;9.442;2023-02-18T14:51:45;14.40;99.90
19974;DHT22;10148;47.694;9.442;2023-02-18T14:54:18;14.50;99.90
19974;DHT22;10148;47.694;9.442;2023-02-18T14:56:53;14.60;99.90
19974;DHT22;10148;47.694;9.442;2023-02-18T14:59:20;14.60;99.90
19974;DHT22;10148;47.694;9.442;2023-02-18T15:01:46;14.50;99.90
19974;DHT22;10148;47.694;9.442;2023-02-18T15:04:15;14.50;99.90
19974;DHT22;10148;47.694;9.442;2023-02-18T15:06:41;14.60;99.90
19974;DHT22;10148;47.694;9.442;2023-02-18T15:09:16;14.70;99.90
19974;DHT22;10148;47.694;9.442;2023-02-18T15:11:50;14.60;99.90
19974;DHT22;10148;47.694;9.442;2023-02-18T15:14:25;14.50;99.90
19974;DHT22;10148;47.694;9.442;2023-02-18T15:16:52;14.40;99.90
19974;DHT22;10148;47.694;9.442;2023-02-18T15:19:30;14.40;99.90
19974;DHT22;10148;47.694;9.442;2023-02-18T15:21:59;14.40;99.90
19974;DHT22;10148;47.694;9.442;2023-02-18T15:24:33;14.30;99.90
19974;DHT22;10148;47.694;9.442;2023-02-18T15:27:02;14.20;99.90
19974;DHT22;10148;47.694;9.442;2023-02-18T15:29:33;14.20;99.90
19974;DHT22;10148;47.694;9.442;2023-02-18T15:31:59;14.20;99.90
19974;DHT22;10148;47.694;9.442;2023-02-18T15:36:54;14.10;99.90
19974;DHT22;10148;47.694;9.442;2023-02-18T15:39:20;14.10;99.90
19974;DHT22;10148;47.694;9.442;2023-02-18T15:41:46;14.10;99.90
19974;DHT22;10148;47.694;9.442;2023-02-18T15:44:21;14.10;99.90
19974;DHT22;10148;47.694;9.442;2023-02-18T15:46:48;14.10;99.90
19974;DHT22;10148;47.694;9.442;2023-02-18T15:49:15;14.00;99.90
19974;DHT22;10148;47.694;9.442;2023-02-18T15:51:43;14.00;99.90
19974;DHT22;10148;47.694;9.442;2023-02-18T15:54:16;14.00;99.90
19974;DHT22;10148;47.694;9.442;2023-02-18T15:56:44;13.90;99.90
19974;DHT22;10148;47.694;9.442;2023-02-18T15:59:26;13.90;99.90
19974;DHT22;10148;47.694;9.442;2023-02-18T16:01:55;13.80;99.90
19974;DHT22;10148;47.694;9.442;2023-02-18T16:04:23;13.80;99.90
19974;DHT22;10148;47.694;9.442;2023-02-18T16:06:53;13.80;99.90
19974;DHT22;10148;47.694;9.442;2023-02-18T16:09:26;13.70;99.90
19974;DHT22;10148;47.694;9.442;2023-02-18T16:11:56;13.70;99.90
19974;DHT22;10148;47.694;9.442;2023-02-18T16:14:46;13.60;99.90
19974;DHT22;10148;47.694;9.442;2023-02-18T16:17:16;13.60;99.90
19974;DHT22;10148;47.694;9.442;2023-02-18T16:19:50;13.50;99.90
19974;DHT22;10148;47.694;9.442;2023-02-18T16:22:33;13.50;99.90
19974;DHT22;10148;47.694;9.442;2023-02-18T16:25:09;13.40;99.90
19974;DHT22;10148;47.694;9.442;2023-02-18T16:27:54;13.40;99.90
19974;DHT22;10148;47.694;9.442;2023-02-18T16:30:25;13.20;99.90
19974;DHT22;10148;47.694;9.442;2023-02-18T16:32:52;13.10;99.90
19974;DHT22;10148;47.694;9.442;2023-02-18T16:35:21;13.00;99.90
19974;DHT22;10148;47.694;9.442;2023-02-18T16:37:47;12.90;99.90
19974;DHT22;10148;47.694;9.442;2023-02-18T16:40:33;12.90;99.90
19974;DHT22;10148;47.694;9.442;2023-02-18T16:43:13;12.80;99.90
19974;DHT22;10148;47.694;9.442;2023-02-18T16:45:44;12.70;99.90
19974;DHT22;10148;47.694;9.442;2023-02-18T16:50:45;12.60;99.90
19974;DHT22;10148;47.694;9.442;2023-02-18T16:53:13;12.50;99.90
19974;DHT22;10148;47.694;9.442;2023-02-18T16:55:39;12.50;99.90
19974;DHT22;10148;47.694;9.442;2023-02-18T16:58:05;12.40;99.90
19974;DHT22;10148;47.694;9.442;2023-02-18T17:00:31;12.40;99.90
19974;DHT22;10148;47.694;9.442;2023-02-18T17:03:00;12.40;99.90
19974;DHT22;10148;47.694;9.442;2023-02-18T17:05:29;12.40;99.90
19974;DHT22;10148;47.694;9.442;2023-02-18T17:10:41;12.30;99.90
19974;DHT22;10148;47.694;9.442;2023-02-18T17:13:22;12.30;99.90
19974;DHT22;10148;47.694;9.442;2023-02-18T17:15:50;12.30;99.90
19974;DHT22;10148;47.694;9.442;2023-02-18T17:18:17;12.30;99.90
19974;DHT22;10148;47.694;9.442;2023-02-18T17:20:43;12.20;99.90
19974;DHT22;10148;47.694;9.442;2023-02-18T17:23:17;12.20;99.90
19974;DHT22;10148;47.694;9.442;2023-02-18T17:25:46;12.20;99.90
19974;DHT22;10148;47.694;9.442;2023-02-18T17:28:13;12.10;99.90
19974;DHT22;10148;47.694;9.442;2023-02-18T17:30:44;12.10;99.90
19974;DHT22;10148;47.694;9.442;2023-02-18T17:33:13;12.10;99.90
19974;DHT22;10148;47.694;9.442;2023-02-18T17:35:39;12.10;99.90
19974;DHT22;10148;47.694;9.442;2023-02-18T17:38:13;12.10;99.90
19974;DHT22;10148;47.694;9.442;2023-02-18T17:40:40;12.00;99.90
19974;DHT22;10148;47.694;9.442;2023-02-18T17:43:06;12.00;99.90
19974;DHT22;10148;47.694;9.442;2023-02-18T17:45:36;12.00;99.90
19974;DHT22;10148;47.694;9.442;2023-02-18T17:48:04;12.00;99.90
19974;DHT22;10148;47.694;9.442;2023-02-18T17:50:30;12.00;99.90
19974;DHT22;10148;47.694;9.442;2023-02-18T17:52:56;11.90;99.90
19974;DHT22;10148;47.694;9.442;2023-02-18T17:55:25;11.90;99.90
19974;DHT22;10148;47.694;9.442;2023-02-18T17:57:52;11.90;99.90
19974;DHT22;10148;47.694;9.442;2023-02-18T18:00:26;11.80;99.90
19974;DHT22;10148;47.694;9.442;2023-02-18T18:02:52;11.90;99.90
19974;DHT22;10148;47.694;9.442;2023-02-18T18:05:22;11.90;99.90
19974;DHT22;10148;47.694;9.442;2023-02-18T18:07:49;11.80;99.90